sensor_id;sensor_type;location;lat;lon;timestamp;P1;durP1;ratioP1;P2;durP2;ratioP2
52642;SDS011;38531;53.296;6.614;2022-11-21T00:00:36;9.88;;;4.75;;
52642;SDS011;38531;53.296;6.614;2022-11-21T00:03:01;11.00;;;5.50;;
52642;SDS011;38531;53.296;6.614;2022-11-21T00:05:28;9.82;;;5.13;;
52642;SDS011;38531;53.296;6.614;2022-11-21T00:07:55;9.10;;;4.30;;
52642;SDS011;38531;53.296;6.614;2022-11-21T00:10:21;9.77;;;4.40;;
52642;SDS011;38531;53.296;6.614;2022-11-21T00:12:52;8.32;;;3.83;;
52642;SDS011;38531;53.296;6.614;2022-11-21T00:15:21;10.18;;;4.70;;
52642;SDS011;38531;53.296;6.614;2022-11-21T00:17:49;9.13;;;4.15;;
52642;SDS011;38531;53.296;6.614;2022-11-21T00:20:16;10.63;;;4.93;;
52642;SDS011;38531;53.296;6.614;2022-11-21T00:22:43;8.82;;;4.60;;
52642;SDS011;38531;53.296;6.614;2022-11-21T00:25:09;12.25;;;5.03;;
52642;SDS011;38531;53.296;6.614;2022-11-21T00:27:35;9.93;;;4.57;;
52642;SDS011;38531;53.296;6.614;2022-11-21T00:30:00;10.55;;;5.43;;
52642;SDS011;38531;53.296;6.614;2022-11-21T00:32:26;9.90;;;5.15;;
52642;SDS011;38531;53.296;6.614;2022-11-21T00:34:52;10.88;;;5.30;;
52642;SDS011;38531;53.296;6.614;2022-11-21T00:37:17;11.68;;;5.68;;
52642;SDS011;38531;53.296;6.614;2022-11-21T00:39:43;10.43;;;5.32;;
52642;SDS011;38531;53.296;6.614;2022-11-21T00:42:09;11.43;;;5.78;;
52642;SDS011;38531;53.296;6.614;2022-11-21T00:44:34;12.52;;;6.18;;
52642;SDS011;38531;53.296;6.614;2022-11-21T00:47:00;10.32;;;5.43;;
52642;SDS011;38531;53.296;6.614;2022-11-21T00:49:26;11.38;;;5.05;;
52642;SDS011;38531;53.296;6.614;2022-11-21T00:51:51;9.52;;;5.45;;
52642;SDS011;38531;53.296;6.614;2022-11-21T00:54:17;12.93;;;6.30;;
52642;SDS011;38531;53.296;6.614;2022-11-21T00:56:43;12.02;;;4.95;;
52642;SDS011;38531;53.296;6.614;2022-11-21T00:59:08;11.00;;;5.28;;
52642;SDS011;38531;53.296;6.614;2022-11-21T01:01:34;12.55;;;5.85;;
52642;SDS011;38531;53.296;6.614;2022-11-21T01:04:00;10.07;;;6.15;;
52642;SDS011;38531;53.296;6.614;2022-11-21T01:06:25;11.70;;;5.03;;
52642;SDS011;38531;53.296;6.614;2022-11-21T01:08:51;11.95;;;5.60;;
52642;SDS011;38531;53.296;6.614;2022-11-21T01:11:18;10.00;;;5.00;;
52642;SDS011;38531;53.296;6.614;2022-11-21T01:13:45;10.10;;;5.15;;
52642;SDS011;38531;53.296;6.614;2022-11-21T01:16:12;10.32;;;5.75;;
52642;SDS011;38531;53.296;6.614;2022-11-21T01:18:40;11.02;;;5.28;;
52642;SDS011;38531;53.296;6.614;2022-11-21T01:21:07;10.95;;;5.97;;
52642;SDS011;38531;53.296;6.614;2022-11-21T01:23:38;11.55;;;5.88;;
52642;SDS011;38531;53.296;6.614;2022-11-21T01:26:04;9.30;;;5.05;;
52642;SDS011;38531;53.296;6.614;2022-11-21T01:28:31;10.98;;;6.15;;
52642;SDS011;38531;53.296;6.614;2022-11-21T01:33:29;11.40;;;5.75;;
52642;SDS011;38531;53.296;6.614;2022-11-21T01:35:55;12.63;;;5.93;;
52642;SDS011;38531;53.296;6.614;2022-11-21T01:38:21;14.32;;;6.43;;
52642;SDS011;38531;53.296;6.614;2022-11-21T01:40:46;12.52;;;5.95;;
52642;SDS011;38531;53.296;6.614;2022-11-21T01:43:13;12.55;;;5.80;;
52642;SDS011;38531;53.296;6.614;2022-11-21T01:48:26;12.20;;;6.32;;
52642;SDS011;38531;53.296;6.614;2022-11-21T01:53:39;10.50;;;5.63;;
52642;SDS011;38531;53.296;6.614;2022-11-21T01:56:09;9.95;;;5.32;;
52642;SDS011;38531;53.296;6.614;2022-11-21T01:58:35;10.73;;;5.80;;
52642;SDS011;38531;53.296;6.614;2022-11-21T02:01:03;10.88;;;5.25;;
52642;SDS011;38531;53.296;6.614;2022-11-21T02:03:30;10.50;;;5.30;;
52642;SDS011;38531;53.296;6.614;2022-11-21T02:05:59;10.57;;;5.40;;
52642;SDS011;38531;53.296;6.614;2022-11-21T02:08:26;9.32;;;5.18;;
52642;SDS011;38531;53.296;6.614;2022-11-21T02:13:38;10.93;;;4.33;;
52642;SDS011;38531;53.296;6.614;2022-11-21T02:16:04;10.75;;;4.97;;
52642;SDS011;38531;53.296;6.614;2022-11-21T02:18:31;9.75;;;4.35;;
52642;SDS011;38531;53.296;6.614;2022-11-21T02:20:59;8.52;;;4.10;;
52642;SDS011;38531;53.296;6.614;2022-11-21T02:23:36;9.15;;;4.50;;
52642;SDS011;38531;53.296;6.614;2022-11-21T02:26:08;7.47;;;3.50;;
52642;SDS011;38531;53.296;6.614;2022-11-21T02:28:34;11.18;;;4.13;;
52642;SDS011;38531;53.296;6.614;2022-11-21T02:31:00;8.80;;;3.95;;
52642;SDS011;38531;53.296;6.614;2022-11-21T02:33:26;8.07;;;4.13;;
52642;SDS011;38531;53.296;6.614;2022-11-21T02:35:58;10.07;;;4.82;;
52642;SDS011;38531;53.296;6.614;2022-11-21T02:38:27;12.68;;;5.82;;
52642;SDS011;38531;53.296;6.614;2022-11-21T02:41:06;87.47;;;81.45;;
52642;SDS011;38531;53.296;6.614;2022-11-21T02:43:38;71.03;;;66.90;;
52642;SDS011;38531;53.296;6.614;2022-11-21T02:46:08;134.95;;;126.50;;
52642;SDS011;38531;53.296;6.614;2022-11-21T02:48:35;9.95;;;4.05;;
52642;SDS011;38531;53.296;6.614;2022-11-21T02:51:02;8.82;;;3.90;;
52642;SDS011;38531;53.296;6.614;2022-11-21T02:53:28;10.38;;;5.43;;
52642;SDS011;38531;53.296;6.614;2022-11-21T02:55:53;11.50;;;4.95;;
52642;SDS011;38531;53.296;6.614;2022-11-21T02:58:19;8.45;;;3.53;;
52642;SDS011;38531;53.296;6.614;2022-11-21T03:00:45;11.57;;;4.72;;
52642;SDS011;38531;53.296;6.614;2022-11-21T03:03:10;9.40;;;4.80;;
52642;SDS011;38531;53.296;6.614;2022-11-21T03:05:37;9.10;;;4.72;;
52642;SDS011;38531;53.296;6.614;2022-11-21T03:08:04;11.05;;;5.45;;
52642;SDS011;38531;53.296;6.614;2022-11-21T03:10:29;9.32;;;5.03;;
52642;SDS011;38531;53.296;6.614;2022-11-21T03:12:56;11.77;;;5.20;;
52642;SDS011;38531;53.296;6.614;2022-11-21T03:15:25;11.63;;;4.53;;
52642;SDS011;38531;53.296;6.614;2022-11-21T03:17:52;10.90;;;5.72;;
52642;SDS011;38531;53.296;6.614;2022-11-21T03:20:18;30.08;;;27.83;;
52642;SDS011;38531;53.296;6.614;2022-11-21T03:22:44;19.08;;;17.33;;
52642;SDS011;38531;53.296;6.614;2022-11-21T03:25:09;39.42;;;36.58;;
52642;SDS011;38531;53.296;6.614;2022-11-21T03:27:35;41.42;;;38.75;;
52642;SDS011;38531;53.296;6.614;2022-11-21T03:30:01;58.35;;;55.17;;
52642;SDS011;38531;53.296;6.614;2022-11-21T03:32:26;139.55;;;130.80;;
52642;SDS011;38531;53.296;6.614;2022-11-21T03:34:52;133.82;;;125.85;;
52642;SDS011;38531;53.296;6.614;2022-11-21T03:37:18;51.33;;;48.13;;
52642;SDS011;38531;53.296;6.614;2022-11-21T03:39:43;18.95;;;17.40;;
52642;SDS011;38531;53.296;6.614;2022-11-21T03:42:09;8.60;;;5.03;;
52642;SDS011;38531;53.296;6.614;2022-11-21T03:44:35;8.50;;;4.60;;
52642;SDS011;38531;53.296;6.614;2022-11-21T03:47:00;14.02;;;4.20;;
52642;SDS011;38531;53.296;6.614;2022-11-21T03:49:26;8.88;;;5.05;;
52642;SDS011;38531;53.296;6.614;2022-11-21T03:51:52;55.50;;;52.08;;
52642;SDS011;38531;53.296;6.614;2022-11-21T03:54:17;10.85;;;4.70;;
52642;SDS011;38531;53.296;6.614;2022-11-21T03:56:43;31.75;;;29.38;;
52642;SDS011;38531;53.296;6.614;2022-11-21T03:59:09;33.53;;;31.33;;
52642;SDS011;38531;53.296;6.614;2022-11-21T04:01:34;9.90;;;4.97;;
52642;SDS011;38531;53.296;6.614;2022-11-21T04:04:00;17.52;;;15.23;;
52642;SDS011;38531;53.296;6.614;2022-11-21T04:06:27;112.22;;;105.30;;
52642;SDS011;38531;53.296;6.614;2022-11-21T04:08:55;15.93;;;9.50;;
52642;SDS011;38531;53.296;6.614;2022-11-21T04:11:21;40.42;;;37.67;;
52642;SDS011;38531;53.296;6.614;2022-11-21T04:13:48;9.70;;;6.55;;
52642;SDS011;38531;53.296;6.614;2022-11-21T04:16:17;42.95;;;40.15;;
52642;SDS011;38531;53.296;6.614;2022-11-21T04:18:43;12.45;;;5.25;;
52642;SDS011;38531;53.296;6.614;2022-11-21T04:21:08;46.85;;;43.88;;
52642;SDS011;38531;53.296;6.614;2022-11-21T04:23:34;28.10;;;25.98;;
52642;SDS011;38531;53.296;6.614;2022-11-21T04:26:00;24.55;;;22.42;;
52642;SDS011;38531;53.296;6.614;2022-11-21T04:28:25;49.25;;;46.20;;
52642;SDS011;38531;53.296;6.614;2022-11-21T04:30:51;9.55;;;4.65;;
52642;SDS011;38531;53.296;6.614;2022-11-21T04:33:17;16.33;;;8.35;;
52642;SDS011;38531;53.296;6.614;2022-11-21T04:35:43;65.38;;;61.08;;
52642;SDS011;38531;53.296;6.614;2022-11-21T04:38:10;12.10;;;5.45;;
52642;SDS011;38531;53.296;6.614;2022-11-21T04:40:37;52.97;;;49.78;;
52642;SDS011;38531;53.296;6.614;2022-11-21T04:43:03;80.13;;;75.50;;
52642;SDS011;38531;53.296;6.614;2022-11-21T04:45:29;132.90;;;125.25;;
52642;SDS011;38531;53.296;6.614;2022-11-21T04:47:55;116.40;;;110.20;;
52642;SDS011;38531;53.296;6.614;2022-11-21T04:50:21;127.18;;;120.10;;
52642;SDS011;38531;53.296;6.614;2022-11-21T04:52:48;13.10;;;5.72;;
52642;SDS011;38531;53.296;6.614;2022-11-21T04:55:15;14.43;;;6.05;;
52642;SDS011;38531;53.296;6.614;2022-11-21T04:57:41;12.43;;;6.60;;
52642;SDS011;38531;53.296;6.614;2022-11-21T05:00:06;130.98;;;122.05;;
52642;SDS011;38531;53.296;6.614;2022-11-21T05:02:33;155.95;;;142.15;;
52642;SDS011;38531;53.296;6.614;2022-11-21T05:04:58;154.02;;;140.45;;
52642;SDS011;38531;53.296;6.614;2022-11-21T05:07:24;125.93;;;116.18;;
52642;SDS011;38531;53.296;6.614;2022-11-21T05:09:50;164.57;;;149.65;;
52642;SDS011;38531;53.296;6.614;2022-11-21T05:12:16;195.25;;;174.13;;
52642;SDS011;38531;53.296;6.614;2022-11-21T05:15:00;237.48;;;212.57;;
52642;SDS011;38531;53.296;6.614;2022-11-21T05:17:28;214.35;;;182.30;;
52642;SDS011;38531;53.296;6.614;2022-11-21T05:19:54;215.23;;;177.82;;
52642;SDS011;38531;53.296;6.614;2022-11-21T05:22:19;218.40;;;181.25;;
52642;SDS011;38531;53.296;6.614;2022-11-21T05:24:45;224.20;;;182.15;;
52642;SDS011;38531;53.296;6.614;2022-11-21T05:27:11;221.52;;;182.15;;
52642;SDS011;38531;53.296;6.614;2022-11-21T05:29:37;243.25;;;213.43;;
52642;SDS011;38531;53.296;6.614;2022-11-21T05:32:02;232.70;;;207.32;;
52642;SDS011;38531;53.296;6.614;2022-11-21T05:34:28;234.70;;;209.70;;
52642;SDS011;38531;53.296;6.614;2022-11-21T05:36:54;183.45;;;163.15;;
52642;SDS011;38531;53.296;6.614;2022-11-21T05:39:23;220.13;;;198.35;;
52642;SDS011;38531;53.296;6.614;2022-11-21T05:41:49;170.02;;;153.48;;
52642;SDS011;38531;53.296;6.614;2022-11-21T05:44:15;174.68;;;156.65;;
52642;SDS011;38531;53.296;6.614;2022-11-21T05:46:41;213.95;;;193.35;;
52642;SDS011;38531;53.296;6.614;2022-11-21T05:49:07;162.05;;;147.50;;
52642;SDS011;38531;53.296;6.614;2022-11-21T05:51:32;206.43;;;187.48;;
52642;SDS011;38531;53.296;6.614;2022-11-21T05:53:58;159.65;;;145.30;;
52642;SDS011;38531;53.296;6.614;2022-11-21T05:56:24;210.30;;;191.20;;
52642;SDS011;38531;53.296;6.614;2022-11-21T05:58:50;177.50;;;159.43;;
52642;SDS011;38531;53.296;6.614;2022-11-21T06:01:18;147.95;;;136.07;;
52642;SDS011;38531;53.296;6.614;2022-11-21T06:04:03;138.80;;;130.43;;
52642;SDS011;38531;53.296;6.614;2022-11-21T06:06:29;129.18;;;121.60;;
52642;SDS011;38531;53.296;6.614;2022-11-21T06:08:55;140.73;;;132.32;;
52642;SDS011;38531;53.296;6.614;2022-11-21T06:11:20;114.43;;;108.18;;
52642;SDS011;38531;53.296;6.614;2022-11-21T06:13:46;105.18;;;99.20;;
52642;SDS011;38531;53.296;6.614;2022-11-21T06:16:13;105.30;;;99.45;;
52642;SDS011;38531;53.296;6.614;2022-11-21T06:18:41;10.52;;;4.88;;
52642;SDS011;38531;53.296;6.614;2022-11-21T06:21:09;11.43;;;5.10;;
52642;SDS011;38531;53.296;6.614;2022-11-21T06:23:38;17.48;;;6.68;;
52642;SDS011;38531;53.296;6.614;2022-11-21T06:26:07;13.95;;;7.63;;
52642;SDS011;38531;53.296;6.614;2022-11-21T06:28:37;31.58;;;29.33;;
52642;SDS011;38531;53.296;6.614;2022-11-21T06:31:08;15.23;;;13.65;;
52642;SDS011;38531;53.296;6.614;2022-11-21T06:33:35;48.05;;;45.17;;
52642;SDS011;38531;53.296;6.614;2022-11-21T06:36:19;45.45;;;42.67;;
52642;SDS011;38531;53.296;6.614;2022-11-21T06:38:46;15.18;;;13.80;;
52642;SDS011;38531;53.296;6.614;2022-11-21T06:41:12;10.52;;;5.05;;
52642;SDS011;38531;53.296;6.614;2022-11-21T06:43:40;13.23;;;5.60;;
52642;SDS011;38531;53.296;6.614;2022-11-21T06:46:06;9.02;;;5.53;;
52642;SDS011;38531;53.296;6.614;2022-11-21T06:48:32;11.85;;;6.28;;
52642;SDS011;38531;53.296;6.614;2022-11-21T06:51:07;9.75;;;4.65;;
52642;SDS011;38531;53.296;6.614;2022-11-21T06:53:55;10.55;;;4.20;;
52642;SDS011;38531;53.296;6.614;2022-11-21T06:56:23;10.68;;;5.10;;
52642;SDS011;38531;53.296;6.614;2022-11-21T06:58:50;9.23;;;4.85;;
52642;SDS011;38531;53.296;6.614;2022-11-21T07:01:16;13.20;;;5.38;;
52642;SDS011;38531;53.296;6.614;2022-11-21T07:03:42;13.80;;;5.85;;
52642;SDS011;38531;53.296;6.614;2022-11-21T07:06:08;13.60;;;5.60;;
52642;SDS011;38531;53.296;6.614;2022-11-21T07:08:34;13.32;;;5.82;;
52642;SDS011;38531;53.296;6.614;2022-11-21T07:11:05;9.80;;;4.45;;
52642;SDS011;38531;53.296;6.614;2022-11-21T07:13:33;11.38;;;4.88;;
52642;SDS011;38531;53.296;6.614;2022-11-21T07:16:03;12.20;;;5.60;;
52642;SDS011;38531;53.296;6.614;2022-11-21T07:18:50;12.00;;;4.65;;
52642;SDS011;38531;53.296;6.614;2022-11-21T07:21:15;14.30;;;4.90;;
52642;SDS011;38531;53.296;6.614;2022-11-21T07:23:41;8.80;;;3.95;;
52642;SDS011;38531;53.296;6.614;2022-11-21T07:26:07;9.60;;;3.92;;
52642;SDS011;38531;53.296;6.614;2022-11-21T07:28:34;13.15;;;4.97;;
52642;SDS011;38531;53.296;6.614;2022-11-21T07:31:00;7.43;;;3.67;;
52642;SDS011;38531;53.296;6.614;2022-11-21T07:33:27;9.10;;;4.88;;
52642;SDS011;38531;53.296;6.614;2022-11-21T07:35:56;12.38;;;5.22;;
52642;SDS011;38531;53.296;6.614;2022-11-21T07:38:22;10.82;;;4.88;;
52642;SDS011;38531;53.296;6.614;2022-11-21T07:40:48;8.55;;;4.30;;
52642;SDS011;38531;53.296;6.614;2022-11-21T07:43:14;14.05;;;6.22;;
52642;SDS011;38531;53.296;6.614;2022-11-21T07:45:40;9.43;;;4.82;;
52642;SDS011;38531;53.296;6.614;2022-11-21T07:48:06;12.63;;;6.00;;
52642;SDS011;38531;53.296;6.614;2022-11-21T07:50:32;10.73;;;5.07;;
52642;SDS011;38531;53.296;6.614;2022-11-21T07:53:02;11.15;;;6.03;;
52642;SDS011;38531;53.296;6.614;2022-11-21T07:55:29;12.48;;;4.82;;
52642;SDS011;38531;53.296;6.614;2022-11-21T07:57:56;12.43;;;5.25;;
52642;SDS011;38531;53.296;6.614;2022-11-21T08:00:30;9.43;;;4.95;;
52642;SDS011;38531;53.296;6.614;2022-11-21T08:02:56;9.52;;;4.22;;
52642;SDS011;38531;53.296;6.614;2022-11-21T08:05:22;9.90;;;4.78;;
52642;SDS011;38531;53.296;6.614;2022-11-21T08:07:48;13.73;;;5.63;;
52642;SDS011;38531;53.296;6.614;2022-11-21T08:10:14;10.48;;;4.85;;
52642;SDS011;38531;53.296;6.614;2022-11-21T08:12:41;16.85;;;5.90;;
52642;SDS011;38531;53.296;6.614;2022-11-21T08:15:07;14.63;;;5.40;;
52642;SDS011;38531;53.296;6.614;2022-11-21T08:17:33;11.93;;;6.13;;
52642;SDS011;38531;53.296;6.614;2022-11-21T08:19:59;13.77;;;5.93;;
52642;SDS011;38531;53.296;6.614;2022-11-21T08:22:25;10.50;;;5.20;;
52642;SDS011;38531;53.296;6.614;2022-11-21T08:24:50;12.05;;;5.03;;
52642;SDS011;38531;53.296;6.614;2022-11-21T08:27:18;14.85;;;5.95;;
52642;SDS011;38531;53.296;6.614;2022-11-21T08:29:45;12.70;;;5.60;;
52642;SDS011;38531;53.296;6.614;2022-11-21T08:32:11;15.85;;;6.10;;
52642;SDS011;38531;53.296;6.614;2022-11-21T08:34:37;15.05;;;5.45;;
52642;SDS011;38531;53.296;6.614;2022-11-21T08:37:03;11.38;;;6.07;;
52642;SDS011;38531;53.296;6.614;2022-11-21T08:39:29;12.48;;;6.82;;
52642;SDS011;38531;53.296;6.614;2022-11-21T08:41:58;10.35;;;5.80;;
52642;SDS011;38531;53.296;6.614;2022-11-21T08:44:30;12.70;;;5.93;;
52642;SDS011;38531;53.296;6.614;2022-11-21T08:46:57;11.10;;;5.65;;
52642;SDS011;38531;53.296;6.614;2022-11-21T08:49:23;12.80;;;6.13;;
52642;SDS011;38531;53.296;6.614;2022-11-21T08:51:48;13.23;;;4.70;;
52642;SDS011;38531;53.296;6.614;2022-11-21T08:54:18;11.25;;;5.60;;
52642;SDS011;38531;53.296;6.614;2022-11-21T08:56:46;11.30;;;5.13;;
52642;SDS011;38531;53.296;6.614;2022-11-21T08:59:12;14.52;;;6.93;;
52642;SDS011;38531;53.296;6.614;2022-11-21T09:01:38;14.43;;;6.32;;
52642;SDS011;38531;53.296;6.614;2022-11-21T09:04:04;16.77;;;7.68;;
52642;SDS011;38531;53.296;6.614;2022-11-21T09:06:30;17.42;;;8.10;;
52642;SDS011;38531;53.296;6.614;2022-11-21T09:08:56;21.33;;;9.10;;
52642;SDS011;38531;53.296;6.614;2022-11-21T09:11:21;18.45;;;8.50;;
52642;SDS011;38531;53.296;6.614;2022-11-21T09:13:49;18.63;;;7.70;;
52642;SDS011;38531;53.296;6.614;2022-11-21T09:16:33;20.27;;;9.55;;
52642;SDS011;38531;53.296;6.614;2022-11-21T09:19:18;18.98;;;9.50;;
52642;SDS011;38531;53.296;6.614;2022-11-21T09:21:44;19.55;;;8.68;;
52642;SDS011;38531;53.296;6.614;2022-11-21T09:24:12;19.45;;;7.95;;
52642;SDS011;38531;53.296;6.614;2022-11-21T09:26:38;15.98;;;7.75;;
52642;SDS011;38531;53.296;6.614;2022-11-21T09:29:04;16.35;;;7.70;;
52642;SDS011;38531;53.296;6.614;2022-11-21T09:31:29;13.63;;;7.78;;
52642;SDS011;38531;53.296;6.614;2022-11-21T09:33:55;18.10;;;8.65;;
52642;SDS011;38531;53.296;6.614;2022-11-21T09:36:20;15.45;;;7.13;;
52642;SDS011;38531;53.296;6.614;2022-11-21T09:38:46;16.35;;;7.30;;
52642;SDS011;38531;53.296;6.614;2022-11-21T09:44:15;14.48;;;7.22;;
52642;SDS011;38531;53.296;6.614;2022-11-21T09:47:10;15.57;;;7.55;;
52642;SDS011;38531;53.296;6.614;2022-11-21T09:50:02;13.82;;;6.57;;
52642;SDS011;38531;53.296;6.614;2022-11-21T09:52:54;11.70;;;5.82;;
52642;SDS011;38531;53.296;6.614;2022-11-21T09:57:59;10.43;;;5.13;;
52642;SDS011;38531;53.296;6.614;2022-11-21T10:00:28;10.52;;;5.57;;
52642;SDS011;38531;53.296;6.614;2022-11-21T10:02:54;11.07;;;5.45;;
52642;SDS011;38531;53.296;6.614;2022-11-21T10:05:32;16.38;;;7.97;;
52642;SDS011;38531;53.296;6.614;2022-11-21T10:08:19;12.32;;;6.70;;
52642;SDS011;38531;53.296;6.614;2022-11-21T10:10:55;13.75;;;6.35;;
52642;SDS011;38531;53.296;6.614;2022-11-21T10:13:35;14.82;;;7.65;;
52642;SDS011;38531;53.296;6.614;2022-11-21T10:16:21;14.73;;;7.32;;
52642;SDS011;38531;53.296;6.614;2022-11-21T10:21:58;14.77;;;7.70;;
52642;SDS011;38531;53.296;6.614;2022-11-21T10:24:32;13.93;;;7.72;;
52642;SDS011;38531;53.296;6.614;2022-11-21T10:27:11;15.40;;;8.15;;
52642;SDS011;38531;53.296;6.614;2022-11-21T10:30:01;12.60;;;6.95;;
52642;SDS011;38531;53.296;6.614;2022-11-21T10:32:37;13.68;;;6.28;;
52642;SDS011;38531;53.296;6.614;2022-11-21T10:35:19;13.30;;;7.00;;
52642;SDS011;38531;53.296;6.614;2022-11-21T10:43:08;12.02;;;6.32;;
52642;SDS011;38531;53.296;6.614;2022-11-21T10:45:59;13.70;;;6.75;;
52642;SDS011;38531;53.296;6.614;2022-11-21T10:48:24;15.18;;;7.20;;
52642;SDS011;38531;53.296;6.614;2022-11-21T10:53:23;15.80;;;7.97;;
52642;SDS011;38531;53.296;6.614;2022-11-21T10:56:13;16.08;;;8.48;;
52642;SDS011;38531;53.296;6.614;2022-11-21T10:58:45;16.23;;;7.80;;
52642;SDS011;38531;53.296;6.614;2022-11-21T11:01:25;16.60;;;8.55;;
52642;SDS011;38531;53.296;6.614;2022-11-21T11:06:55;12.05;;;5.82;;
52642;SDS011;38531;53.296;6.614;2022-11-21T11:09:22;13.82;;;6.43;;
52642;SDS011;38531;53.296;6.614;2022-11-21T11:11:48;11.82;;;5.75;;
52642;SDS011;38531;53.296;6.614;2022-11-21T11:14:13;13.13;;;7.38;;
52642;SDS011;38531;53.296;6.614;2022-11-21T11:16:44;12.57;;;6.70;;
52642;SDS011;38531;53.296;6.614;2022-11-21T11:22:54;10.63;;;5.40;;
52642;SDS011;38531;53.296;6.614;2022-11-21T11:25:20;11.68;;;6.57;;
52642;SDS011;38531;53.296;6.614;2022-11-21T11:27:47;13.18;;;6.90;;
52642;SDS011;38531;53.296;6.614;2022-11-21T11:30:16;12.52;;;6.53;;
52642;SDS011;38531;53.296;6.614;2022-11-21T11:32:43;11.75;;;6.78;;
52642;SDS011;38531;53.296;6.614;2022-11-21T11:37:41;10.52;;;6.40;;
52642;SDS011;38531;53.296;6.614;2022-11-21T11:42:57;11.85;;;6.93;;
52642;SDS011;38531;53.296;6.614;2022-11-21T11:48:54;11.00;;;6.15;;
52642;SDS011;38531;53.296;6.614;2022-11-21T11:51:41;9.95;;;5.30;;
52642;SDS011;38531;53.296;6.614;2022-11-21T11:54:14;10.48;;;5.55;;
52642;SDS011;38531;53.296;6.614;2022-11-21T11:56:47;7.97;;;4.90;;
52642;SDS011;38531;53.296;6.614;2022-11-21T12:02:26;12.95;;;6.78;;
52642;SDS011;38531;53.296;6.614;2022-11-21T12:05:03;11.00;;;6.18;;
52642;SDS011;38531;53.296;6.614;2022-11-21T12:07:38;11.18;;;5.78;;
52642;SDS011;38531;53.296;6.614;2022-11-21T12:10:11;10.10;;;5.85;;
52642;SDS011;38531;53.296;6.614;2022-11-21T12:12:48;11.55;;;6.20;;
52642;SDS011;38531;53.296;6.614;2022-11-21T12:42:17;6.93;;;3.72;;
52642;SDS011;38531;53.296;6.614;2022-11-21T12:45:28;9.48;;;5.60;;
52642;SDS011;38531;53.296;6.614;2022-11-21T12:48:19;10.77;;;5.28;;
52642;SDS011;38531;53.296;6.614;2022-11-21T12:57:14;11.75;;;5.72;;
52642;SDS011;38531;53.296;6.614;2022-11-21T13:05:30;10.75;;;6.00;;
52642;SDS011;38531;53.296;6.614;2022-11-21T13:08:04;7.47;;;3.92;;
52642;SDS011;38531;53.296;6.614;2022-11-21T13:10:41;7.95;;;4.28;;
52642;SDS011;38531;53.296;6.614;2022-11-21T13:13:43;9.90;;;5.07;;
52642;SDS011;38531;53.296;6.614;2022-11-21T13:16:19;8.77;;;4.88;;
52642;SDS011;38531;53.296;6.614;2022-11-21T13:19:10;9.07;;;4.53;;
52642;SDS011;38531;53.296;6.614;2022-11-21T13:21:46;9.18;;;4.65;;
52642;SDS011;38531;53.296;6.614;2022-11-21T13:32:56;11.20;;;5.70;;
52642;SDS011;38531;53.296;6.614;2022-11-21T13:38:00;9.10;;;4.95;;
52642;SDS011;38531;53.296;6.614;2022-11-21T13:45:37;8.73;;;5.03;;
52642;SDS011;38531;53.296;6.614;2022-11-21T13:57:04;10.15;;;5.40;;
52642;SDS011;38531;53.296;6.614;2022-11-21T14:08:15;10.27;;;5.10;;
52642;SDS011;38531;53.296;6.614;2022-11-21T14:10:47;9.07;;;4.78;;
52642;SDS011;38531;53.296;6.614;2022-11-21T14:13:27;7.53;;;3.63;;
52642;SDS011;38531;53.296;6.614;2022-11-21T14:18:22;7.15;;;3.72;;
52642;SDS011;38531;53.296;6.614;2022-11-21T14:20:53;9.02;;;4.28;;
52642;SDS011;38531;53.296;6.614;2022-11-21T14:23:21;10.05;;;5.03;;
52642;SDS011;38531;53.296;6.614;2022-11-21T14:25:53;8.27;;;3.78;;
52642;SDS011;38531;53.296;6.614;2022-11-21T14:28:27;7.80;;;4.20;;
52642;SDS011;38531;53.296;6.614;2022-11-21T14:30:54;7.50;;;3.70;;
52642;SDS011;38531;53.296;6.614;2022-11-21T14:38:25;9.73;;;5.03;;
52642;SDS011;38531;53.296;6.614;2022-11-21T14:46:29;8.40;;;4.60;;
52642;SDS011;38531;53.296;6.614;2022-11-21T14:51:41;11.00;;;5.57;;
52642;SDS011;38531;53.296;6.614;2022-11-21T14:54:12;9.63;;;4.35;;
52642;SDS011;38531;53.296;6.614;2022-11-21T14:56:45;8.93;;;4.25;;
52642;SDS011;38531;53.296;6.614;2022-11-21T14:59:15;9.02;;;4.90;;
52642;SDS011;38531;53.296;6.614;2022-11-21T15:01:55;8.80;;;4.75;;
52642;SDS011;38531;53.296;6.614;2022-11-21T15:04:25;10.43;;;4.55;;
52642;SDS011;38531;53.296;6.614;2022-11-21T15:06:53;10.55;;;5.43;;
52642;SDS011;38531;53.296;6.614;2022-11-21T15:09:19;10.88;;;5.75;;
52642;SDS011;38531;53.296;6.614;2022-11-21T15:11:50;13.93;;;5.30;;
52642;SDS011;38531;53.296;6.614;2022-11-21T15:17:07;12.27;;;5.25;;
52642;SDS011;38531;53.296;6.614;2022-11-21T15:19:44;11.05;;;5.30;;
52642;SDS011;38531;53.296;6.614;2022-11-21T15:22:26;10.48;;;5.38;;
52642;SDS011;38531;53.296;6.614;2022-11-21T15:27:39;12.25;;;6.10;;
52642;SDS011;38531;53.296;6.614;2022-11-21T15:32:33;13.07;;;6.35;;
52642;SDS011;38531;53.296;6.614;2022-11-21T15:38:21;13.90;;;7.00;;
52642;SDS011;38531;53.296;6.614;2022-11-21T15:49:00;13.75;;;6.85;;
52642;SDS011;38531;53.296;6.614;2022-11-21T15:51:32;17.52;;;8.52;;
52642;SDS011;38531;53.296;6.614;2022-11-21T15:54:01;13.48;;;7.03;;
52642;SDS011;38531;53.296;6.614;2022-11-21T15:56:27;13.52;;;7.28;;
52642;SDS011;38531;53.296;6.614;2022-11-21T15:58:53;11.57;;;6.68;;
52642;SDS011;38531;53.296;6.614;2022-11-21T16:01:23;13.68;;;6.55;;
52642;SDS011;38531;53.296;6.614;2022-11-21T16:03:51;14.73;;;7.72;;
52642;SDS011;38531;53.296;6.614;2022-11-21T16:06:18;14.80;;;7.45;;
52642;SDS011;38531;53.296;6.614;2022-11-21T16:08:44;17.80;;;8.43;;
52642;SDS011;38531;53.296;6.614;2022-11-21T16:13:48;16.90;;;8.02;;
52642;SDS011;38531;53.296;6.614;2022-11-21T16:16:18;20.33;;;9.10;;
52642;SDS011;38531;53.296;6.614;2022-11-21T16:18:45;21.88;;;10.10;;
52642;SDS011;38531;53.296;6.614;2022-11-21T16:21:11;19.05;;;8.13;;
52642;SDS011;38531;53.296;6.614;2022-11-21T16:23:37;25.02;;;10.30;;
52642;SDS011;38531;53.296;6.614;2022-11-21T16:26:03;22.95;;;9.25;;
52642;SDS011;38531;53.296;6.614;2022-11-21T16:28:30;25.88;;;10.75;;
52642;SDS011;38531;53.296;6.614;2022-11-21T16:30:58;19.42;;;8.23;;
52642;SDS011;38531;53.296;6.614;2022-11-21T16:33:26;29.52;;;9.90;;
52642;SDS011;38531;53.296;6.614;2022-11-21T16:35:52;23.35;;;9.77;;
52642;SDS011;38531;53.296;6.614;2022-11-21T16:38:30;21.90;;;9.10;;
52642;SDS011;38531;53.296;6.614;2022-11-21T16:40:56;21.33;;;9.05;;
52642;SDS011;38531;53.296;6.614;2022-11-21T16:43:27;20.55;;;9.48;;
52642;SDS011;38531;53.296;6.614;2022-11-21T16:45:54;26.67;;;9.38;;
52642;SDS011;38531;53.296;6.614;2022-11-21T16:48:21;28.38;;;11.80;;
52642;SDS011;38531;53.296;6.614;2022-11-21T16:50:47;21.20;;;9.18;;
52642;SDS011;38531;53.296;6.614;2022-11-21T16:53:14;19.08;;;8.05;;
52642;SDS011;38531;53.296;6.614;2022-11-21T16:55:40;21.48;;;8.57;;
52642;SDS011;38531;53.296;6.614;2022-11-21T16:58:06;23.55;;;8.70;;
52642;SDS011;38531;53.296;6.614;2022-11-21T17:00:33;23.88;;;9.00;;
52642;SDS011;38531;53.296;6.614;2022-11-21T17:02:59;23.92;;;9.43;;
52642;SDS011;38531;53.296;6.614;2022-11-21T17:05:25;26.15;;;10.32;;
52642;SDS011;38531;53.296;6.614;2022-11-21T17:07:50;26.45;;;10.13;;
52642;SDS011;38531;53.296;6.614;2022-11-21T17:10:16;24.17;;;10.15;;
52642;SDS011;38531;53.296;6.614;2022-11-21T17:12:42;25.55;;;9.23;;
52642;SDS011;38531;53.296;6.614;2022-11-21T17:15:10;17.98;;;7.72;;
52642;SDS011;38531;53.296;6.614;2022-11-21T17:17:38;16.00;;;7.80;;